Time;durP1;ratioP1;P1;durP2;ratioP2;P2;SDS_P1;SDS_P2;PMS_P1;PMS_P2;Temp;Humidity;BMP_temperature;BMP_pressure;BME280_temperature;BME280_humidity;BME280_pressure;Samples;Min_cycle;Max_cycle;Signal;HPM_P1;HPM_P2
2022/03/22 00:01:47;;;;;;;73.63;51.78;;;27.30;99.90;;;;;;5035651;28;20087;-60
2022/03/22 00:04:14;;;;;;;60.72;40.05;;;27.30;99.90;;;;;;5034679;28;20036;-62
2022/03/22 00:06:41;;;;;;;63.88;44.17;;;27.20;99.90;;;;;;5036027;28;20092;-61
2022/03/22 00:09:08;;;;;;;73.18;47.35;;;27.20;99.90;;;;;;5034880;28;20037;-61
2022/03/22 00:11:34;;;;;;;138.00;124.00;;;27.10;99.90;;;;;;5035586;28;20096;-61
2022/03/22 00:19:23;;;;;;;70.90;49.95;;;27.20;99.90;;;;;;5111447;27;20496;-60
2022/03/22 00:21:50;;;;;;;80.88;57.72;;;27.10;99.90;;;;;;5093538;28;20025;-60
2022/03/22 00:24:17;;;;;;;112.10;71.65;;;27.10;99.90;;;;;;5090476;28;20054;-56
2022/03/22 00:26:43;;;;;;;84.38;54.72;;;27.20;99.90;;;;;;5085143;28;20029;-58
2022/03/22 00:29:10;;;;;;;83.07;48.10;;;27.20;99.90;;;;;;5089278;28;20542;-60
2022/03/22 00:31:37;;;;;;;72.25;43.60;;;27.30;99.90;;;;;;5091398;28;20087;-60
2022/03/22 00:34:04;;;;;;;68.40;41.05;;;27.40;99.90;;;;;;5091042;28;20099;-60
2022/03/22 00:36:32;;;;;;;60.85;39.65;;;27.50;99.90;;;;;;5090525;28;20024;-61
2022/03/22 00:38:58;;;;;;;47.80;34.58;;;27.50;99.90;;;;;;5090164;28;20027;-57
2022/03/22 00:41:25;;;;;;;55.60;36.45;;;27.60;99.90;;;;;;5089420;28;20013;-60
2022/03/22 00:43:51;;;;;;;48.72;32.40;;;27.60;99.90;;;;;;5090894;28;20059;-60
2022/03/22 00:46:18;;;;;;;57.13;37.25;;;27.70;99.90;;;;;;5089726;28;20479;-60
2022/03/22 00:48:47;;;;;;;51.42;35.90;;;27.90;99.90;;;;;;5091053;28;20357;-62
2022/03/22 00:51:14;;;;;;;51.08;32.05;;;28.00;99.90;;;;;;5090730;28;20515;-61
2022/03/22 00:53:41;;;;;;;74.72;51.85;;;28.10;99.90;;;;;;5090577;28;20024;-62
2022/03/22 00:56:08;;;;;;;82.07;46.80;;;28.20;99.90;;;;;;5090769;28;20033;-61
2022/03/22 00:58:35;;;;;;;62.95;35.90;;;28.30;99.90;;;;;;5089673;28;20433;-62
2022/03/22 01:01:02;;;;;;;50.15;31.73;;;28.40;99.90;;;;;;5090772;28;20024;-62
2022/03/22 01:03:29;;;;;;;41.33;28.67;;;28.50;99.90;;;;;;5090353;28;20009;-62
2022/03/22 01:05:59;;;;;;;44.53;26.63;;;28.40;99.90;;;;;;5090168;28;20029;-61
2022/03/22 01:08:29;;;;;;;43.35;28.05;;;28.40;99.90;;;;;;5090211;28;20033;-61
2022/03/22 01:10:56;;;;;;;49.80;28.35;;;28.60;99.90;;;;;;5090409;28;20028;-61
2022/03/22 01:13:25;;;;;;;42.60;26.98;;;28.70;99.90;;;;;;5090623;28;20035;-61
2022/03/22 01:15:52;;;;;;;33.67;23.65;;;28.90;99.90;;;;;;5087732;28;20043;-60
2022/03/22 01:18:19;;;;;;;36.28;22.85;;;29.00;99.90;;;;;;5086674;28;20062;-62
2022/03/22 01:20:49;;;;;;;33.42;21.02;;;29.10;99.90;;;;;;5107138;22;20052;-62
2022/03/22 01:23:19;;;;;;;45.22;20.17;;;29.10;99.90;;;;;;5081253;28;20476;-62
2022/03/22 01:25:45;;;;;;;37.67;19.75;;;29.20;99.90;;;;;;5080734;28;20380;-63
2022/03/22 01:28:14;;;;;;;28.35;19.63;;;29.30;99.90;;;;;;5083218;28;20032;-62
2022/03/22 01:30:41;;;;;;;34.63;20.70;;;29.20;99.90;;;;;;5068163;28;20104;-63
2022/03/22 01:33:08;;;;;;;30.50;19.90;;;29.30;99.90;;;;;;5071758;28;20033;-63
2022/03/22 01:35:35;;;;;;;44.05;24.42;;;29.40;99.90;;;;;;5070304;28;20239;-63
2022/03/22 01:38:03;;;;;;;40.25;21.80;;;29.50;99.90;;;;;;5070238;28;20094;-63
2022/03/22 01:40:31;;;;;;;48.38;27.55;;;29.50;99.90;;;;;;5068616;28;20044;-62
2022/03/22 01:42:58;;;;;;;33.10;22.27;;;29.50;99.90;;;;;;5070398;28;20025;-63
2022/03/22 01:45:25;;;;;;;40.38;23.13;;;29.60;99.90;;;;;;5073196;28;20086;-63
2022/03/22 01:47:55;;;;;;;35.35;23.33;;;29.60;99.90;;;;;;5073002;28;20021;-63
2022/03/22 01:50:22;;;;;;;41.45;27.45;;;29.60;99.90;;;;;;5076244;28;20041;-63
2022/03/22 01:52:49;;;;;;;35.00;23.33;;;29.70;99.90;;;;;;5075571;28;20477;-63
2022/03/22 01:55:19;;;;;;;21.00;13.75;;;29.80;99.90;;;;;;5067470;28;20036;-63
2022/03/22 01:57:47;;;;;;;18.10;12.77;;;29.90;99.90;;;;;;5070286;28;20059;-62
2022/03/22 02:00:18;;;;;;;62.58;47.78;;;30.10;99.90;;;;;;5071477;28;20262;-63
2022/03/22 02:05:59;;;;;;;31.95;19.35;;;30.20;99.90;;;;;;5072478;28;20025;-63
2022/03/22 02:08:26;;;;;;;28.27;15.82;;;30.30;99.90;;;;;;5055098;28;20045;-63
2022/03/22 02:10:53;;;;;;;46.88;17.27;;;30.30;99.90;;;;;;5062876;28;20028;-63
2022/03/22 02:13:20;;;;;;;27.58;16.25;;;30.30;99.90;;;;;;5055122;28;20025;-62
2022/03/22 02:15:51;;;;;;;26.60;15.65;;;30.30;99.90;;;;;;5054908;28;20032;-62
2022/03/22 02:18:18;;;;;;;23.83;13.57;;;30.40;99.90;;;;;;5050596;28;20026;-61
2022/03/22 02:20:45;;;;;;;18.70;11.50;;;30.40;99.90;;;;;;5047987;28;20056;-61
2022/03/22 02:23:21;;;;;;;18.42;12.60;;;30.40;99.90;;;;;;5092654;22;20135;-60
2022/03/22 02:25:49;;;;;;;22.20;10.90;;;30.40;99.90;;;;;;5073278;28;20029;-61
2022/03/22 02:28:19;;;;;;;20.52;12.45;;;30.60;99.90;;;;;;5073510;28;20037;-61
2022/03/22 02:30:46;;;;;;;21.63;12.35;;;30.60;99.90;;;;;;5075120;28;20020;-61
2022/03/22 02:33:13;;;;;;;18.15;12.13;;;30.70;99.90;;;;;;5075128;28;20033;-59
2022/03/22 02:35:40;;;;;;;18.48;12.75;;;30.60;99.90;;;;;;5075294;28;20036;-61
2022/03/22 02:38:08;;;;;;;26.48;14.43;;;30.70;99.90;;;;;;5074644;28;20075;-61
2022/03/22 02:40:35;;;;;;;22.35;12.95;;;30.80;99.90;;;;;;5068904;28;20535;-61
2022/03/22 02:43:04;;;;;;;17.15;11.50;;;30.90;99.90;;;;;;5070298;28;20029;-61
2022/03/22 02:45:31;;;;;;;17.17;13.18;;;30.90;99.90;;;;;;5068188;28;20047;-62
2022/03/22 02:47:58;;;;;;;17.42;12.05;;;31.00;99.90;;;;;;5072672;28;20427;-61
2022/03/22 02:50:24;;;;;;;21.85;13.45;;;30.90;99.90;;;;;;5072335;28;20532;-60
2022/03/22 02:52:51;;;;;;;29.80;17.02;;;30.90;99.90;;;;;;5073862;28;20036;-60
2022/03/22 02:55:18;;;;;;;23.27;14.00;;;30.80;99.90;;;;;;5073391;28;20060;-61
2022/03/22 02:57:45;;;;;;;55.40;30.27;;;30.90;99.90;;;;;;5074605;28;20028;-60
2022/03/22 03:00:13;;;;;;;42.53;26.50;;;31.00;99.90;;;;;;5072814;28;20035;-61
2022/03/22 03:02:42;;;;;;;58.15;42.55;;;31.20;99.90;;;;;;5072490;28;20020;-60
2022/03/22 03:05:10;;;;;;;33.65;20.60;;;31.40;99.90;;;;;;5072417;28;20025;-61
2022/03/22 03:07:38;;;;;;;25.00;16.13;;;31.40;99.90;;;;;;5073472;28;20426;-61
2022/03/22 03:10:07;;;;;;;48.33;29.13;;;31.40;99.90;;;;;;5075076;28;20017;-61
2022/03/22 03:12:34;;;;;;;28.73;16.00;;;31.30;99.90;;;;;;5073842;28;20033;-61
2022/03/22 03:15:01;;;;;;;48.67;29.33;;;31.30;99.80;;;;;;5073089;28;20029;-61
2022/03/22 03:17:27;;;;;;;24.23;16.95;;;31.10;99.90;;;;;;5069927;28;20029;-60
2022/03/22 03:19:54;;;;;;;23.40;15.20;;;31.10;99.90;;;;;;5069346;28;20028;-61
2022/03/22 03:22:21;;;;;;;23.85;14.02;;;31.10;99.90;;;;;;5074607;28;20058;-62
2022/03/22 03:24:47;;;;;;;23.95;14.48;;;31.20;99.90;;;;;;5073100;28;20024;-60
2022/03/22 03:27:15;;;;;;;27.27;14.85;;;31.20;99.90;;;;;;5073600;28;20028;-60
2022/03/22 03:29:42;;;;;;;22.55;14.07;;;31.30;99.90;;;;;;5069313;28;20016;-64
2022/03/22 03:32:09;;;;;;;25.27;13.70;;;31.40;99.90;;;;;;5074066;28;20020;-62
2022/03/22 03:34:36;;;;;;;25.20;15.30;;;31.40;99.90;;;;;;5072850;28;20017;-62
2022/03/22 03:37:03;;;;;;;19.52;12.63;;;31.40;99.90;;;;;;5072037;28;20035;-63
2022/03/22 03:39:30;;;;;;;22.30;13.15;;;31.50;99.90;;;;;;5071675;28;20410;-61
2022/03/22 03:41:57;;;;;;;20.17;13.02;;;31.70;99.90;;;;;;5072548;28;20058;-62
2022/03/22 03:47:19;;;;;;;21.98;13.60;;;31.80;97.90;;;;;;5072343;28;20374;-61
2022/03/22 03:49:48;;;;;;;20.48;13.77;;;32.00;97.30;;;;;;5072249;28;20056;-60
2022/03/22 03:52:18;;;;;;;24.73;14.55;;;32.00;96.60;;;;;;5072049;28;20032;-59
2022/03/22 03:54:45;;;;;;;21.63;13.43;;;32.00;95.00;;;;;;5071714;28;20155;-61
2022/03/22 03:57:13;;;;;;;23.38;14.40;;;32.20;95.40;;;;;;5073378;28;20062;-60
2022/03/22 03:59:40;;;;;;;22.58;14.50;;;32.20;96.40;;;;;;5073316;28;20089;-61
2022/03/22 04:02:08;;;;;;;17.50;11.93;;;32.00;96.50;;;;;;5073083;28;20103;-63
2022/03/22 04:04:35;;;;;;;21.13;13.43;;;32.00;97.20;;;;;;5071533;28;20025;-61
2022/03/22 04:07:05;;;;;;;24.55;12.90;;;32.00;97.40;;;;;;5071291;28;20020;-61
2022/03/22 04:09:34;;;;;;;19.92;12.82;;;32.00;97.00;;;;;;5072303;28;20532;-62
2022/03/22 04:12:01;;;;;;;22.58;13.38;;;32.00;96.20;;;;;;5069627;28;20075;-62
2022/03/22 04:14:28;;;;;;;24.15;13.77;;;32.10;96.20;;;;;;5071599;28;20281;-61
2022/03/22 04:16:56;;;;;;;18.25;12.65;;;32.10;95.10;;;;;;5071765;28;20037;-60
2022/03/22 04:19:23;;;;;;;20.27;12.70;;;32.30;95.30;;;;;;5071365;28;20027;-62
2022/03/22 04:21:50;;;;;;;28.08;13.73;;;32.20;94.80;;;;;;5069080;28;20591;-62
2022/03/22 04:24:18;;;;;;;23.73;13.77;;;32.20;95.60;;;;;;5070664;28;20118;-63
2022/03/22 04:26:46;;;;;;;23.33;13.38;;;32.30;94.40;;;;;;5070919;28;20024;-62
2022/03/22 04:34:48;;;;;;;18.55;12.98;;;32.50;93.70;;;;;;5069015;28;20477;-62
2022/03/22 04:37:16;;;;;;;17.60;12.63;;;32.40;93.70;;;;;;5057670;28;20082;-62
2022/03/22 04:39:45;;;;;;;17.98;12.18;;;32.40;93.20;;;;;;5067386;28;20064;-62
2022/03/22 04:42:14;;;;;;;17.67;12.65;;;32.50;92.40;;;;;;5068110;28;20035;-62
2022/03/22 04:44:41;;;;;;;16.92;13.27;;;32.70;90.90;;;;;;5062766;28;20046;-62
2022/03/22 04:47:09;;;;;;;21.52;13.88;;;32.70;87.90;;;;;;5066220;28;20035;-60
2022/03/22 04:49:36;;;;;;;16.52;11.38;;;32.80;88.80;;;;;;5070422;28;20481;-62
2022/03/22 04:57:36;;;;;;;21.35;12.70;;;33.00;89.30;;;;;;5073256;28;20108;-62
2022/03/22 05:00:05;;;;;;;21.70;12.07;;;33.10;88.90;;;;;;5066478;28;20029;-61
2022/03/22 05:02:33;;;;;;;23.15;12.70;;;33.10;85.70;;;;;;5067430;28;20025;-62
2022/03/22 05:05:00;;;;;;;16.77;12.00;;;33.10;87.80;;;;;;5071350;28;20028;-61
2022/03/22 05:07:27;;;;;;;19.10;13.18;;;33.10;85.80;;;;;;5071267;28;20031;-62
2022/03/22 05:09:53;;;;;;;19.17;11.38;;;33.20;86.00;;;;;;5066487;28;20416;-61
2022/03/22 05:12:20;;;;;;;19.50;11.70;;;33.40;87.90;;;;;;5075149;28;20044;-62
2022/03/22 05:14:50;;;;;;;18.95;9.85;;;33.40;87.20;;;;;;5071887;28;20029;-61
2022/03/22 05:17:23;;;;;;;16.98;10.48;;;33.40;84.00;;;;;;5074722;28;20032;-61
2022/03/22 05:19:51;;;;;;;20.80;13.65;;;33.40;84.30;;;;;;5074070;28;20035;-61
2022/03/22 05:22:18;;;;;;;15.07;10.75;;;33.30;85.50;;;;;;5069307;28;20025;-61
2022/03/22 05:24:46;;;;;;;24.83;14.95;;;33.10;85.00;;;;;;5071687;28;20040;-62
2022/03/22 05:27:15;;;;;;;24.17;13.90;;;33.00;87.10;;;;;;5071385;28;20028;-61
2022/03/22 05:29:42;;;;;;;22.50;13.05;;;33.00;86.00;;;;;;5070189;28;20040;-62
2022/03/22 05:32:09;;;;;;;25.42;14.45;;;33.20;84.80;;;;;;5067376;28;20024;-60
2022/03/22 05:34:36;;;;;;;20.75;12.23;;;33.20;86.40;;;;;;5074729;28;20017;-62
2022/03/22 05:37:03;;;;;;;20.23;11.38;;;33.30;85.10;;;;;;5070622;28;20370;-62
2022/03/22 05:39:30;;;;;;;20.90;12.20;;;33.40;85.50;;;;;;5069817;28;20119;-62
2022/03/22 05:41:57;;;;;;;17.92;11.13;;;33.40;82.40;;;;;;5065283;28;20031;-68
2022/03/22 05:44:24;;;;;;;19.80;12.45;;;33.40;83.60;;;;;;5075873;28;20103;-62
2022/03/22 05:46:51;;;;;;;20.52;12.23;;;33.50;85.50;;;;;;5074156;28;20435;-60
2022/03/22 05:49:17;;;;;;;21.60;13.05;;;33.80;81.80;;;;;;5074968;28;20462;-59
2022/03/22 05:51:44;;;;;;;22.63;11.85;;;33.90;83.70;;;;;;5073289;28;20480;-58
2022/03/22 05:54:11;;;;;;;31.40;12.57;;;33.70;82.10;;;;;;5071766;28;20037;-58
2022/03/22 05:56:38;;;;;;;33.97;12.23;;;33.70;81.50;;;;;;5074400;28;20017;-56
2022/03/22 05:59:04;;;;;;;49.33;26.55;;;33.70;82.60;;;;;;5075382;28;20024;-57
2022/03/22 06:01:31;;;;;;;46.08;23.55;;;33.80;80.00;;;;;;5067030;28;20025;-61
2022/03/22 06:03:58;;;;;;;26.52;11.48;;;34.00;78.60;;;;;;5073012;28;20077;-60
2022/03/22 06:06:25;;;;;;;17.50;9.57;;;33.90;75.50;;;;;;5073094;28;20500;-60
2022/03/22 06:08:52;;;;;;;17.40;9.20;;;33.80;76.70;;;;;;5070415;28;20024;-59
2022/03/22 06:11:18;;;;;;;18.05;9.95;;;33.80;75.20;;;;;;5068280;28;20024;-61
2022/03/22 06:13:45;;;;;;;17.63;10.55;;;33.80;77.10;;;;;;5072936;28;20496;-60
2022/03/22 06:16:12;;;;;;;17.10;9.27;;;33.90;75.10;;;;;;5074172;28;20040;-59
2022/03/22 06:18:39;;;;;;;13.57;8.02;;;33.90;75.50;;;;;;5075214;28;20428;-61
2022/03/22 06:21:06;;;;;;;14.35;8.93;;;33.90;76.50;;;;;;5079532;28;20033;-60
2022/03/22 06:23:32;;;;;;;12.60;8.60;;;34.10;77.10;;;;;;5075669;28;20389;-60
2022/03/22 06:26:01;;;;;;;17.60;11.32;;;34.00;75.40;;;;;;5075278;28;20033;-61
2022/03/22 06:28:27;;;;;;;21.23;9.95;;;34.20;73.80;;;;;;5073255;28;20078;-61
2022/03/22 06:30:54;;;;;;;12.48;7.75;;;34.20;74.80;;;;;;5074444;28;20057;-61
2022/03/22 06:33:22;;;;;;;11.30;7.80;;;34.20;72.30;;;;;;5061161;28;20078;-60
2022/03/22 06:35:49;;;;;;;14.32;8.38;;;34.20;72.60;;;;;;5065130;28;20040;-59
2022/03/22 06:38:17;;;;;;;12.63;8.20;;;34.10;73.10;;;;;;5064774;28;20044;-60
2022/03/22 06:40:45;;;;;;;8.68;7.72;;;34.10;71.90;;;;;;5074632;28;20475;-60
2022/03/22 06:43:14;;;;;;;15.85;9.05;;;34.10;73.80;;;;;;5073908;28;20036;-60
2022/03/22 06:45:41;;;;;;;12.85;8.82;;;34.10;74.30;;;;;;5073214;28;20492;-60
2022/03/22 06:48:08;;;;;;;10.45;7.70;;;34.20;74.40;;;;;;5058301;28;20477;-62
2022/03/22 06:50:36;;;;;;;10.60;7.68;;;34.30;70.50;;;;;;5073393;28;20108;-61
2022/03/22 06:53:05;;;;;;;15.90;8.25;;;34.40;71.10;;;;;;5073161;28;20381;-61
2022/03/22 06:55:32;;;;;;;13.35;7.90;;;34.40;72.20;;;;;;5060053;28;20052;-61
2022/03/22 06:58:00;;;;;;;16.20;7.90;;;34.50;71.70;;;;;;5066110;28;20029;-57
2022/03/22 07:00:31;;;;;;;13.48;7.43;;;34.60;70.10;;;;;;5073730;28;20033;-60
2022/03/22 07:03:00;;;;;;;20.02;7.25;;;34.60;68.90;;;;;;5068482;28;20082;-59
2022/03/22 07:05:28;;;;;;;12.60;8.30;;;34.60;68.80;;;;;;5074044;28;20025;-60
2022/03/22 07:07:56;;;;;;;9.32;7.25;;;34.70;67.90;;;;;;5072817;28;20035;-57
2022/03/22 07:10:23;;;;;;;13.50;8.32;;;34.70;67.80;;;;;;5071831;28;20400;-61
2022/03/22 07:13:00;;;;;;;14.70;7.10;;;34.70;67.80;;;;;;5073807;28;20060;-60
2022/03/22 07:15:30;;;;;;;15.20;8.48;;;34.70;67.60;;;;;;5071573;28;20040;-60
2022/03/22 07:18:00;;;;;;;17.02;8.65;;;34.60;68.80;;;;;;5063723;28;20028;-63
2022/03/22 07:20:27;;;;;;;17.70;11.10;;;34.60;67.70;;;;;;5058265;28;20033;-62
2022/03/22 07:22:53;;;;;;;22.17;14.30;;;34.60;66.30;;;;;;5063758;28;20025;-62
2022/03/22 07:25:21;;;;;;;33.45;26.75;;;34.60;68.90;;;;;;5071746;28;20025;-62
2022/03/22 07:27:48;;;;;;;45.22;35.30;;;34.50;68.70;;;;;;5072067;28;20032;-63
2022/03/22 07:30:16;;;;;;;24.50;16.13;;;34.60;69.00;;;;;;5058472;28;20123;-63
2022/03/22 07:32:44;;;;;;;15.05;8.02;;;34.60;69.80;;;;;;5065314;28;20041;-62
2022/03/22 07:35:12;;;;;;;14.73;7.70;;;34.70;65.90;;;;;;5071772;28;20261;-62
2022/03/22 07:37:40;;;;;;;26.63;16.13;;;34.80;66.10;;;;;;5065217;28;20025;-61
2022/03/22 07:40:10;;;;;;;12.40;8.63;;;34.80;67.00;;;;;;5071457;28;20401;-62
2022/03/22 07:42:37;;;;;;;15.77;9.38;;;34.70;66.40;;;;;;5067972;28;20021;-63
2022/03/22 07:45:08;;;;;;;13.55;9.40;;;34.80;67.00;;;;;;5069726;28;20048;-62
2022/03/22 07:47:36;;;;;;;23.83;16.77;;;34.80;63.80;;;;;;5064594;28;20100;-63
2022/03/22 07:53:01;;;;;;;16.15;10.27;;;34.80;65.10;;;;;;5072011;28;20040;-63
2022/03/22 07:55:32;;;;;;;15.32;10.18;;;34.80;67.60;;;;;;5071332;28;20059;-64
2022/03/22 07:57:59;;;;;;;64.80;49.72;;;34.80;66.30;;;;;;5071157;28;20060;-62
2022/03/22 08:00:27;;;;;;;28.75;19.58;;;34.80;66.30;;;;;;5066448;28;20512;-63
2022/03/22 08:02:56;;;;;;;41.88;30.38;;;34.90;65.00;;;;;;5071656;28;20016;-62
2022/03/22 08:05:24;;;;;;;15.00;10.23;;;34.80;66.00;;;;;;5068882;28;20027;-61
2022/03/22 08:07:53;;;;;;;15.20;8.80;;;34.80;65.70;;;;;;5064781;28;20044;-62
2022/03/22 08:10:21;;;;;;;15.23;9.65;;;34.60;66.20;;;;;;5066571;28;20480;-62
2022/03/22 08:12:49;;;;;;;38.75;30.08;;;34.70;66.30;;;;;;5063970;28;20161;-62
2022/03/22 08:15:17;;;;;;;26.27;17.30;;;34.80;67.80;;;;;;5070971;28;20050;-61
2022/03/22 08:17:53;;;;;;;26.15;14.52;;;34.80;66.00;;;;;;5071022;28;20032;-62
2022/03/22 08:20:19;;;;;;;15.23;9.02;;;34.80;67.20;;;;;;5067289;28;20397;-62
2022/03/22 08:22:50;;;;;;;16.20;9.60;;;34.80;66.90;;;;;;5064268;28;20469;-61
2022/03/22 08:25:29;;;;;;;13.97;8.33;;;34.80;66.80;;;;;;5067471;28;20066;-61
2022/03/22 08:27:59;;;;;;;30.63;18.70;;;34.80;66.40;;;;;;5065393;28;20055;-62
2022/03/22 08:30:26;;;;;;;63.47;45.03;;;34.90;66.80;;;;;;5066862;28;20075;-62
2022/03/22 08:32:56;;;;;;;21.58;14.38;;;34.90;67.30;;;;;;5069137;28;20025;-62
2022/03/22 08:35:24;;;;;;;17.38;9.00;;;34.80;67.10;;;;;;5068926;28;20112;-62
2022/03/22 08:37:51;;;;;;;20.23;15.60;;;34.80;66.50;;;;;;5068204;28;20035;-62
2022/03/22 08:40:18;;;;;;;20.55;9.57;;;34.80;67.50;;;;;;5066632;28;20021;-61
2022/03/22 08:42:47;;;;;;;14.10;9.88;;;34.80;66.30;;;;;;5073877;28;20090;-62
2022/03/22 08:45:16;;;;;;;11.55;8.60;;;34.80;67.70;;;;;;5076800;28;20024;-59
2022/03/22 08:47:45;;;;;;;12.80;7.95;;;34.80;66.20;;;;;;5076818;28;20468;-60
2022/03/22 08:50:15;;;;;;;12.75;8.60;;;34.80;66.20;;;;;;5073662;28;20035;-59
2022/03/22 08:52:43;;;;;;;22.05;12.52;;;34.80;65.00;;;;;;5072764;28;20033;-61
2022/03/22 08:55:14;;;;;;;16.15;10.43;;;34.80;67.70;;;;;;5076843;28;20028;-61
2022/03/22 08:57:42;;;;;;;21.70;11.35;;;34.80;66.90;;;;;;5073592;28;20047;-62
2022/03/22 09:00:11;;;;;;;19.20;11.00;;;34.70;67.40;;;;;;5074711;28;20154;-62
2022/03/22 09:02:44;;;;;;;16.98;10.23;;;34.80;66.30;;;;;;5062754;28;20031;-61
2022/03/22 09:08:01;;;;;;;16.95;11.35;;;34.80;67.50;;;;;;5067859;28;20488;-62
2022/03/22 09:10:29;;;;;;;15.45;7.80;;;34.80;66.10;;;;;;5069564;28;20078;-62
2022/03/22 09:12:56;;;;;;;18.67;12.50;;;34.80;65.10;;;;;;5067438;28;20473;-61
2022/03/22 09:15:27;;;;;;;19.50;12.68;;;34.60;65.20;;;;;;5070911;28;20024;-62
2022/03/22 09:17:55;;;;;;;17.70;10.98;;;34.50;65.30;;;;;;5072122;28;20048;-61
2022/03/22 09:20:23;;;;;;;23.15;11.60;;;34.50;67.10;;;;;;5075000;28;20372;-61
2022/03/22 09:22:52;;;;;;;20.05;13.70;;;34.50;67.70;;;;;;5070784;28;20108;-61
2022/03/22 09:25:21;;;;;;;26.85;17.88;;;34.40;67.70;;;;;;5074098;28;20095;-60
2022/03/22 09:27:48;;;;;;;22.55;13.45;;;34.40;68.30;;;;;;5073025;28;20028;-61
2022/03/22 09:30:15;;;;;;;22.42;12.63;;;34.40;68.50;;;;;;5071963;28;20076;-60
2022/03/22 09:32:43;;;;;;;37.15;23.77;;;34.40;68.30;;;;;;5074332;28;20103;-61
2022/03/22 09:35:11;;;;;;;28.17;17.02;;;34.40;70.30;;;;;;5072492;28;20477;-62
2022/03/22 09:37:41;;;;;;;25.23;15.32;;;34.30;69.50;;;;;;5095569;22;20060;-61
2022/03/22 09:40:09;;;;;;;32.30;19.08;;;34.30;70.10;;;;;;5072854;28;20058;-60
2022/03/22 09:42:48;;;;;;;34.85;17.92;;;34.30;69.10;;;;;;5074943;28;20051;-62
2022/03/22 09:45:18;;;;;;;34.45;20.33;;;34.30;66.00;;;;;;5070784;28;20017;-61
2022/03/22 09:47:46;;;;;;;27.13;15.23;;;34.30;69.00;;;;;;5067355;28;20385;-62
2022/03/22 09:50:17;;;;;;;33.38;15.77;;;34.30;69.20;;;;;;5070565;28;20032;-61
2022/03/22 09:52:44;;;;;;;19.02;11.88;;;34.40;69.40;;;;;;5068480;28;20095;-61
2022/03/22 09:55:15;;;;;;;38.55;19.50;;;34.30;67.30;;;;;;5070881;28;20500;-59
2022/03/22 09:57:41;;;;;;;32.28;17.75;;;34.30;67.10;;;;;;5069959;28;20101;-60
2022/03/22 10:00:12;;;;;;;25.48;15.63;;;34.20;67.80;;;;;;5072323;28;20021;-62
2022/03/22 10:02:39;;;;;;;26.77;18.38;;;34.30;67.70;;;;;;5071194;28;20035;-60
2022/03/22 10:05:06;;;;;;;35.65;19.25;;;34.20;68.60;;;;;;5071826;28;20016;-60
2022/03/22 10:07:33;;;;;;;34.03;18.45;;;34.20;69.40;;;;;;5073519;28;20465;-58
2022/03/22 10:10:06;;;;;;;31.65;19.90;;;34.20;70.00;;;;;;5073541;28;20101;-61
2022/03/22 10:12:36;;;;;;;32.20;20.38;;;34.20;69.30;;;;;;5065667;28;20576;-60
2022/03/22 10:15:12;;;;;;;25.60;15.27;;;34.20;69.00;;;;;;5061922;28;20090;-61
2022/03/22 10:17:40;;;;;;;22.65;14.52;;;34.20;69.40;;;;;;5063309;28;20017;-60
2022/03/22 10:20:08;;;;;;;34.22;20.35;;;34.20;69.40;;;;;;5062291;28;20044;-60
2022/03/22 10:22:37;;;;;;;34.30;18.98;;;34.20;69.30;;;;;;5061516;28;20075;-61
2022/03/22 10:25:08;;;;;;;29.08;18.38;;;34.10;69.10;;;;;;5063794;28;20078;-61
2022/03/22 10:27:36;;;;;;;42.90;22.88;;;34.10;69.60;;;;;;5068755;28;20026;-59
2022/03/22 10:30:06;;;;;;;54.85;34.85;;;34.10;70.40;;;;;;5065103;28;20036;-61
2022/03/22 10:32:35;;;;;;;47.22;33.63;;;34.00;71.00;;;;;;5059972;28;20033;-60
2022/03/22 10:35:12;;;;;;;41.30;26.38;;;34.00;71.20;;;;;;5066391;28;20120;-60
2022/03/22 10:37:42;;;;;;;56.88;34.83;;;34.00;70.60;;;;;;5070006;28;20036;-60
2022/03/22 10:40:40;;;;;;;53.45;31.70;;;33.90;70.60;;;;;;5064904;28;20021;-61
2022/03/22 10:43:09;;;;;;;62.35;38.67;;;33.90;70.90;;;;;;5046687;28;20037;-60
2022/03/22 10:46:00;;;;;;;140.63;103.05;;;33.80;70.90;;;;;;5061250;28;20040;-66
2022/03/22 10:48:32;;;;;;;60.75;36.85;;;33.80;70.50;;;;;;5065133;28;20017;-60
2022/03/22 10:50:59;;;;;;;;;;;33.80;71.00;;;;;;5063412;28;20535;-59
2022/03/22 10:53:28;;;;;;;73.53;52.20;;;33.70;70.50;;;;;;5067046;28;19959;-59
2022/03/22 10:55:57;;;;;;;44.22;26.17;;;33.70;71.20;;;;;;5067573;28;20056;-62
2022/03/22 10:58:26;;;;;;;49.42;28.30;;;33.70;71.10;;;;;;5065602;28;20299;-60
2022/03/22 11:00:55;;;;;;;266.67;204.20;;;33.70;70.90;;;;;;5062224;28;20398;-59
2022/03/22 11:03:23;;;;;;;105.00;68.22;;;33.60;71.80;;;;;;5061757;28;20028;-60
2022/03/22 11:06:02;;;;;;;57.03;32.20;;;33.60;73.20;;;;;;5066884;28;20124;-59
2022/03/22 11:08:28;;;;;;;68.63;36.95;;;33.60;72.90;;;;;;5065365;28;20481;-59
2022/03/22 11:10:55;;;;;;;83.80;47.50;;;33.60;72.50;;;;;;5066197;28;20021;-62
2022/03/22 11:13:24;;;;;;;85.30;50.95;;;33.60;72.90;;;;;;5065849;28;20028;-60
2022/03/22 11:15:52;;;;;;;138.43;84.35;;;33.50;72.70;;;;;;5065781;28;20407;-60
2022/03/22 11:18:21;;;;;;;256.02;146.57;;;33.50;73.40;;;;;;5064909;28;20028;-62
2022/03/22 11:20:49;;;;;;;148.90;91.78;;;33.40;73.80;;;;;;5066709;28;20017;-62
2022/03/22 11:23:20;;;;;;;154.75;96.10;;;33.40;73.80;;;;;;5066308;28;20024;-60
2022/03/22 11:25:47;;;;;;;1056.15;698.35;;;33.30;73.80;;;;;;5060836;28;20025;-59
2022/03/22 11:28:24;;;;;;;1999.90;981.35;;;33.30;75.10;;;;;;5063648;28;20124;-58
2022/03/22 11:30:53;;;;;;;1107.63;700.67;;;33.20;74.40;;;;;;5063343;28;20028;-60
2022/03/22 11:36:18;;;;;;;1733.85;744.03;;;33.00;76.70;;;;;;5063916;28;20558;-61
2022/03/22 11:38:51;;;;;;;990.00;546.28;;;32.80;79.10;;;;;;5061824;28;20478;-60
2022/03/22 11:44:30;;;;;;;1653.35;727.88;;;32.70;81.90;;;;;;5060622;28;20127;-60
2022/03/22 11:47:11;;;;;;;776.05;439.45;;;32.60;82.80;;;;;;5060943;28;20465;-58
2022/03/22 11:49:51;;;;;;;1019.70;640.10;;;32.60;82.30;;;;;;5062053;28;20052;-60
2022/03/22 11:52:20;;;;;;;912.22;585.40;;;32.40;83.70;;;;;;5067248;28;20115;-59
2022/03/22 11:54:57;;;;;;;601.60;398.75;;;32.40;83.80;;;;;;5066732;28;20291;-60
2022/03/22 11:57:25;;;;;;;454.10;278.80;;;32.40;83.90;;;;;;5063537;28;20033;-60
2022/03/22 11:59:55;;;;;;;360.52;186.07;;;32.40;84.40;;;;;;5065753;28;20019;-60
2022/03/22 12:02:27;;;;;;;346.35;182.98;;;32.20;85.20;;;;;;5069428;28;20501;-60
2022/03/22 12:04:56;;;;;;;236.20;103.75;;;32.20;85.60;;;;;;5065426;28;20025;-60
2022/03/22 12:07:28;;;;;;;223.10;97.57;;;32.10;85.40;;;;;;5062734;28;20108;-61
2022/03/22 12:10:07;;;;;;;256.95;111.57;;;32.10;86.40;;;;;;5062909;28;20020;-60
2022/03/22 12:12:36;;;;;;;271.38;100.43;;;32.10;84.90;;;;;;5060892;28;20031;-59
2022/03/22 12:15:05;;;;;;;178.55;78.45;;;32.00;86.10;;;;;;5064253;28;20020;-59
2022/03/22 12:17:31;;;;;;;113.22;55.13;;;32.00;87.60;;;;;;5062387;28;20095;-61
2022/03/22 12:19:59;;;;;;;103.30;51.25;;;32.00;86.90;;;;;;5061924;28;20025;-60
2022/03/22 12:22:27;;;;;;;180.30;82.82;;;32.00;87.50;;;;;;5057418;28;20033;-60
2022/03/22 12:24:57;;;;;;;173.50;80.32;;;32.00;87.50;;;;;;5067657;28;20062;-60
2022/03/22 12:27:24;;;;;;;93.32;50.38;;;32.00;87.20;;;;;;5062868;28;20366;-60
2022/03/22 12:29:52;;;;;;;155.95;72.57;;;32.00;87.80;;;;;;5065379;28;20020;-61
2022/03/22 12:32:21;;;;;;;120.07;61.83;;;32.00;88.20;;;;;;5054639;28;20017;-62
2022/03/22 12:34:49;;;;;;;315.33;136.20;;;32.00;88.20;;;;;;5059061;28;20362;-63
2022/03/22 12:37:17;;;;;;;74.38;42.55;;;32.00;88.50;;;;;;5062364;28;20131;-61
2022/03/22 12:39:46;;;;;;;168.40;75.10;;;32.00;88.50;;;;;;5058462;28;20154;-60
2022/03/22 12:42:14;;;;;;;122.72;56.20;;;31.90;88.60;;;;;;5063447;28;20032;-61
2022/03/22 12:44:42;;;;;;;69.50;34.15;;;31.80;89.30;;;;;;5062795;28;20064;-62
2022/03/22 12:47:09;;;;;;;53.72;26.50;;;31.80;89.30;;;;;;5059655;28;20040;-61
2022/03/22 12:49:40;;;;;;;88.70;43.88;;;31.80;89.60;;;;;;5061273;28;20025;-61
2022/03/22 12:52:08;;;;;;;277.52;108.53;;;31.80;90.00;;;;;;5064423;28;20029;-62
2022/03/22 12:54:37;;;;;;;544.75;220.82;;;31.80;90.00;;;;;;5061896;28;20032;-61
2022/03/22 12:57:09;;;;;;;91.75;46.38;;;31.70;90.40;;;;;;5061033;28;20495;-61
2022/03/22 12:59:37;;;;;;;77.32;39.88;;;31.70;90.50;;;;;;5064194;28;20033;-60
2022/03/22 13:02:06;;;;;;;54.50;35.28;;;31.70;90.40;;;;;;5064475;28;20029;-61
2022/03/22 13:04:38;;;;;;;412.65;132.93;;;31.70;90.50;;;;;;5060976;28;20016;-61
2022/03/22 13:07:08;;;;;;;155.48;60.25;;;31.60;90.90;;;;;;5066473;28;20531;-61